sensor_id;sensor_type;location;lat;lon;timestamp;pressure;altitude;pressure_sealevel;temperature;humidity
48029;BME280;33808;37.368;127.108;2023-02-17T06:50:03;100999.44;;;29.40;nan
48029;BME280;33808;37.368;127.108;2023-02-17T06:53:33;101008.06;;;29.52;nan
48029;BME280;33808;37.368;127.108;2023-02-17T06:56:42;100999.16;;;29.68;nan
48029;BME280;33808;37.368;127.108;2023-02-17T06:59:31;101019.34;;;29.72;nan
48029;BME280;33808;37.368;127.108;2023-02-17T07:03:00;101020.38;;;29.79;nan
48029;BME280;33808;37.368;127.108;2023-02-17T07:06:09;100996.50;;;29.84;nan
48029;BME280;33808;37.368;127.108;2023-02-17T07:08:39;100996.00;;;29.81;nan
48029;BME280;33808;37.368;127.108;2023-02-17T07:11:10;100988.06;;;29.79;nan
48029;BME280;33808;37.368;127.108;2023-02-17T07:13:41;100942.59;;;29.68;nan
48029;BME280;33808;37.368;127.108;2023-02-17T07:16:12;100974.25;;;29.66;nan
48029;BME280;33808;37.368;127.108;2023-02-17T07:18:42;100986.72;;;29.83;nan
48029;BME280;33808;37.368;127.108;2023-02-17T07:21:19;100978.63;;;29.83;nan
48029;BME280;33808;37.368;127.108;2023-02-17T07:23:49;100982.84;;;29.86;nan
48029;BME280;33808;37.368;127.108;2023-02-17T07:26:19;100986.91;;;29.82;nan
48029;BME280;33808;37.368;127.108;2023-02-17T07:28:48;100972.09;;;29.86;nan
48029;BME280;33808;37.368;127.108;2023-02-17T07:31:18;100990.28;;;29.84;nan
48029;BME280;33808;37.368;127.108;2023-02-17T07:33:48;100989.75;;;29.88;nan
48029;BME280;33808;37.368;127.108;2023-02-17T07:36:37;100982.34;;;29.82;nan
48029;BME280;33808;37.368;127.108;2023-02-17T07:40:09;100978.47;;;29.85;nan
48029;BME280;33808;37.368;127.108;2023-02-17T07:43:38;100968.03;;;29.90;nan
48029;BME280;33808;37.368;127.108;2023-02-17T07:47:07;100955.91;;;29.86;nan
48029;BME280;33808;37.368;127.108;2023-02-17T07:50:37;100968.72;;;29.84;nan
48029;BME280;33808;37.368;127.108;2023-02-17T07:54:06;100965.00;;;29.85;nan
48029;BME280;33808;37.368;127.108;2023-02-17T07:57:35;100974.28;;;29.82;nan
48029;BME280;33808;37.368;127.108;2023-02-17T08:01:22;100967.50;;;29.70;nan
48029;BME280;33808;37.368;127.108;2023-02-17T08:04:35;100977.94;;;29.65;nan
48029;BME280;33808;37.368;127.108;2023-02-17T08:07:44;100948.84;;;29.52;nan
48029;BME280;33808;37.368;127.108;2023-02-17T08:10:14;100963.47;;;29.49;nan
48029;BME280;33808;37.368;127.108;2023-02-17T08:13:02;100964.81;;;29.45;nan
48029;BME280;33808;37.368;127.108;2023-02-17T08:16:09;100965.31;;;29.49;nan
48029;BME280;33808;37.368;127.108;2023-02-17T08:19:38;100968.34;;;29.46;nan
48029;BME280;33808;37.368;127.108;2023-02-17T08:23:07;100990.72;;;29.55;nan
48029;BME280;33808;37.368;127.108;2023-02-17T08:26:36;100972.88;;;29.54;nan
48029;BME280;33808;37.368;127.108;2023-02-17T08:30:05;100979.13;;;29.54;nan
48029;BME280;33808;37.368;127.108;2023-02-17T08:33:34;100951.31;;;29.37;nan
48029;BME280;33808;37.368;127.108;2023-02-17T08:37:03;100974.38;;;29.48;nan
48029;BME280;33808;37.368;127.108;2023-02-17T08:40:31;100984.00;;;29.51;nan
48029;BME280;33808;37.368;127.108;2023-02-17T08:44:01;100988.88;;;29.47;nan
48029;BME280;33808;37.368;127.108;2023-02-17T08:47:29;100985.16;;;29.48;nan
48029;BME280;33808;37.368;127.108;2023-02-17T08:50:57;100981.47;;;29.49;nan
48029;BME280;33808;37.368;127.108;2023-02-17T08:54:27;100995.09;;;29.47;nan
48029;BME280;33808;37.368;127.108;2023-02-17T08:57:56;101004.19;;;29.55;nan
48029;BME280;33808;37.368;127.108;2023-02-17T09:01:25;101002.69;;;29.52;nan
48029;BME280;33808;37.368;127.108;2023-02-17T09:04:53;101005.66;;;29.41;nan
48029;BME280;33808;37.368;127.108;2023-02-17T09:08:22;101010.22;;;29.40;nan
48029;BME280;33808;37.368;127.108;2023-02-17T09:11:51;101013.75;;;29.41;nan
48029;BME280;33808;37.368;127.108;2023-02-17T09:15:20;101009.19;;;29.33;nan
48029;BME280;33808;37.368;127.108;2023-02-17T09:18:29;101015.09;;;29.37;nan
48029;BME280;33808;37.368;127.108;2023-02-17T09:21:38;101010.38;;;29.30;nan
48029;BME280;33808;37.368;127.108;2023-02-17T09:25:18;101005.81;;;29.31;nan
48029;BME280;33808;37.368;127.108;2023-02-17T09:28:47;100998.06;;;29.28;nan
48029;BME280;33808;37.368;127.108;2023-02-17T09:32:09;100982.13;;;29.26;nan
48029;BME280;33808;37.368;127.108;2023-02-17T09:34:39;100968.00;;;29.24;nan
48029;BME280;33808;37.368;127.108;2023-02-17T09:37:11;100973.84;;;29.20;nan
48029;BME280;33808;37.368;127.108;2023-02-17T09:39:41;100972.00;;;29.20;nan
48029;BME280;33808;37.368;127.108;2023-02-17T09:42:19;100968.63;;;29.18;nan
48029;BME280;33808;37.368;127.108;2023-02-17T09:45:13;100975.47;;;29.13;nan
48029;BME280;33808;37.368;127.108;2023-02-17T09:47:53;100971.28;;;29.10;nan
48029;BME280;33808;37.368;127.108;2023-02-17T09:50:31;100974.97;;;29.09;nan
48029;BME280;33808;37.368;127.108;2023-02-17T09:53:15;100988.91;;;29.04;nan
48029;BME280;33808;37.368;127.108;2023-02-17T09:55:52;100992.59;;;29.03;nan
48029;BME280;33808;37.368;127.108;2023-02-17T09:58:39;100991.94;;;29.09;nan
48029;BME280;33808;37.368;127.108;2023-02-17T10:02:08;100977.28;;;29.04;nan
48029;BME280;33808;37.368;127.108;2023-02-17T10:05:35;100990.59;;;29.05;nan
48029;BME280;33808;37.368;127.108;2023-02-17T10:12:32;100994.63;;;29.01;nan
48029;BME280;33808;37.368;127.108;2023-02-17T10:15:43;100952.56;;;28.92;nan
48029;BME280;33808;37.368;127.108;2023-02-17T10:18:56;100989.53;;;28.82;nan
48029;BME280;33808;37.368;127.108;2023-02-17T10:22:31;100995.38;;;28.85;nan
48029;BME280;33808;37.368;127.108;2023-02-17T10:26:11;101000.78;;;28.85;nan
48029;BME280;33808;37.368;127.108;2023-02-17T10:30:19;101025.69;;;28.87;nan
48029;BME280;33808;37.368;127.108;2023-02-17T10:35:53;101039.91;;;28.80;nan
48029;BME280;33808;37.368;127.108;2023-02-17T10:38:48;101047.31;;;28.78;nan
48029;BME280;33808;37.368;127.108;2023-02-17T10:41:33;101051.53;;;28.80;nan
48029;BME280;33808;37.368;127.108;2023-02-17T10:44:13;101048.47;;;28.75;nan
48029;BME280;33808;37.368;127.108;2023-02-17T10:46:45;101046.09;;;28.72;nan
48029;BME280;33808;37.368;127.108;2023-02-17T10:49:25;101032.50;;;28.73;nan
48029;BME280;33808;37.368;127.108;2023-02-17T10:52:23;101010.00;;;28.75;nan
48029;BME280;33808;37.368;127.108;2023-02-17T10:54:58;101007.78;;;28.70;nan
48029;BME280;33808;37.368;127.108;2023-02-17T10:57:51;100999.34;;;28.65;nan
48029;BME280;33808;37.368;127.108;2023-02-17T11:00:23;101024.44;;;28.73;nan
48029;BME280;33808;37.368;127.108;2023-02-17T11:02:53;101020.94;;;28.81;nan
48029;BME280;33808;37.368;127.108;2023-02-17T11:05:26;101002.78;;;28.83;nan
48029;BME280;33808;37.368;127.108;2023-02-17T11:08:06;101007.63;;;28.80;nan
48029;BME280;33808;37.368;127.108;2023-02-17T11:13:39;101005.44;;;28.75;nan
48029;BME280;33808;37.368;127.108;2023-02-17T11:21:28;100964.44;;;28.73;nan
48029;BME280;33808;37.368;127.108;2023-02-17T11:24:01;100982.75;;;28.78;nan
48029;BME280;33808;37.368;127.108;2023-02-17T11:26:35;100986.47;;;28.85;nan
48029;BME280;33808;37.368;127.108;2023-02-17T11:29:15;100998.56;;;28.81;nan
48029;BME280;33808;37.368;127.108;2023-02-17T11:32:05;100981.91;;;28.77;nan
48029;BME280;33808;37.368;127.108;2023-02-17T11:34:39;100946.59;;;28.64;nan
48029;BME280;33808;37.368;127.108;2023-02-17T11:39:47;100970.97;;;28.70;nan
48029;BME280;33808;37.368;127.108;2023-02-17T11:42:31;100967.97;;;28.73;nan
48029;BME280;33808;37.368;127.108;2023-02-17T11:45:16;100966.44;;;28.71;nan
48029;BME280;33808;37.368;127.108;2023-02-17T11:51:19;100984.41;;;28.70;nan
48029;BME280;33808;37.368;127.108;2023-02-17T11:54:49;101003.59;;;28.76;nan
48029;BME280;33808;37.368;127.108;2023-02-17T11:58:11;100986.41;;;28.68;nan
48029;BME280;33808;37.368;127.108;2023-02-17T12:18:48;100991.16;;;28.48;nan
48029;BME280;33808;37.368;127.108;2023-02-17T12:30:27;101011.94;;;28.38;nan
48029;BME280;33808;37.368;127.108;2023-02-17T12:34:09;100996.50;;;28.40;nan
48029;BME280;33808;37.368;127.108;2023-02-17T12:37:37;101000.34;;;28.38;nan
48029;BME280;33808;37.368;127.108;2023-02-17T12:44:27;101007.22;;;28.32;nan
48029;BME280;33808;37.368;127.108;2023-02-17T12:47:54;101012.41;;;28.33;nan
48029;BME280;33808;37.368;127.108;2023-02-17T12:51:14;101013.56;;;28.31;nan
48029;BME280;33808;37.368;127.108;2023-02-17T12:58:11;101026.84;;;28.32;nan
48029;BME280;33808;37.368;127.108;2023-02-17T13:01:36;101024.63;;;28.28;nan
48029;BME280;33808;37.368;127.108;2023-02-17T13:05:05;100996.13;;;28.09;nan
48029;BME280;33808;37.368;127.108;2023-02-17T13:08:50;101006.84;;;28.27;nan
48029;BME280;33808;37.368;127.108;2023-02-17T13:12:16;100997.44;;;28.05;nan
48029;BME280;33808;37.368;127.108;2023-02-17T13:15:44;101031.47;;;28.22;nan
48029;BME280;33808;37.368;127.108;2023-02-17T13:19:13;101022.72;;;28.20;nan
48029;BME280;33808;37.368;127.108;2023-02-17T13:22:41;101029.81;;;28.21;nan
48029;BME280;33808;37.368;127.108;2023-02-17T13:26:23;101024.56;;;28.20;nan
48029;BME280;33808;37.368;127.108;2023-02-17T13:32:34;101035.78;;;28.15;nan
48029;BME280;33808;37.368;127.108;2023-02-17T13:36:10;101040.53;;;28.21;nan
48029;BME280;33808;37.368;127.108;2023-02-17T14:28:33;101038.88;;;27.84;nan
48029;BME280;33808;37.368;127.108;2023-02-17T14:31:11;101032.47;;;27.95;nan
48029;BME280;33808;37.368;127.108;2023-02-17T14:34:01;101034.13;;;27.96;nan
48029;BME280;33808;37.368;127.108;2023-02-17T14:37:37;100998.50;;;27.76;nan
48029;BME280;33808;37.368;127.108;2023-02-17T14:41:06;100996.50;;;27.78;nan
48029;BME280;33808;37.368;127.108;2023-02-17T14:44:34;101035.69;;;27.99;nan
48029;BME280;33808;37.368;127.108;2023-02-17T14:48:03;101016.88;;;27.99;nan
48029;BME280;33808;37.368;127.108;2023-02-17T14:51:33;101004.41;;;27.80;nan
48029;BME280;33808;37.368;127.108;2023-02-17T14:55:01;101021.22;;;28.00;nan
48029;BME280;33808;37.368;127.108;2023-02-17T14:58:30;101031.44;;;27.96;nan
48029;BME280;33808;37.368;127.108;2023-02-17T15:01:58;101009.97;;;27.96;nan
48029;BME280;33808;37.368;127.108;2023-02-17T15:05:27;101004.44;;;27.98;nan
48029;BME280;33808;37.368;127.108;2023-02-17T15:08:56;100996.84;;;27.93;nan
48029;BME280;33808;37.368;127.108;2023-02-17T15:12:25;100994.84;;;27.95;nan
48029;BME280;33808;37.368;127.108;2023-02-17T15:15:53;100999.00;;;27.89;nan
48029;BME280;33808;37.368;127.108;2023-02-17T15:19:22;100954.88;;;27.74;nan
48029;BME280;33808;37.368;127.108;2023-02-17T15:22:54;100967.63;;;27.90;nan
48029;BME280;33808;37.368;127.108;2023-02-17T15:26:23;100966.91;;;27.88;nan
48029;BME280;33808;37.368;127.108;2023-02-17T15:29:52;100931.09;;;27.61;nan
48029;BME280;33808;37.368;127.108;2023-02-17T15:33:22;100956.63;;;27.83;nan
48029;BME280;33808;37.368;127.108;2023-02-17T15:36:50;100944.22;;;27.82;nan
48029;BME280;33808;37.368;127.108;2023-02-17T15:40:20;100950.41;;;27.83;nan
48029;BME280;33808;37.368;127.108;2023-02-17T15:43:51;100936.31;;;27.81;nan
48029;BME280;33808;37.368;127.108;2023-02-17T15:47:19;100944.16;;;27.56;nan
48029;BME280;33808;37.368;127.108;2023-02-17T15:50:48;100935.91;;;27.75;nan
48029;BME280;33808;37.368;127.108;2023-02-17T15:54:17;100913.44;;;27.50;nan
48029;BME280;33808;37.368;127.108;2023-02-17T15:57:48;100932.44;;;27.83;nan
48029;BME280;33808;37.368;127.108;2023-02-17T16:01:28;100915.28;;;27.76;nan
48029;BME280;33808;37.368;127.108;2023-02-17T16:04:55;100944.34;;;27.81;nan
48029;BME280;33808;37.368;127.108;2023-02-17T16:08:24;100936.44;;;27.79;nan
48029;BME280;33808;37.368;127.108;2023-02-17T16:11:53;100935.78;;;27.77;nan
48029;BME280;33808;37.368;127.108;2023-02-17T16:15:05;100927.63;;;27.69;nan
48029;BME280;33808;37.368;127.108;2023-02-17T16:17:59;100922.13;;;27.70;nan
48029;BME280;33808;37.368;127.108;2023-02-17T16:21:10;100925.28;;;27.66;nan
48029;BME280;33808;37.368;127.108;2023-02-17T16:24:00;100892.69;;;27.61;nan
48029;BME280;33808;37.368;127.108;2023-02-17T16:53:03;100897.31;;;27.50;nan
48029;BME280;33808;37.368;127.108;2023-02-17T16:55:35;100888.25;;;27.51;nan
48029;BME280;33808;37.368;127.108;2023-02-17T16:58:15;100872.69;;;27.55;nan
48029;BME280;33808;37.368;127.108;2023-02-17T17:00:46;100854.41;;;27.58;nan
48029;BME280;33808;37.368;127.108;2023-02-17T17:03:17;100885.84;;;27.66;nan
48029;BME280;33808;37.368;127.108;2023-02-17T17:05:47;100882.47;;;27.64;nan
48029;BME280;33808;37.368;127.108;2023-02-17T17:08:17;100888.16;;;27.61;nan
48029;BME280;33808;37.368;127.108;2023-02-17T17:10:48;100881.13;;;27.60;nan
48029;BME280;33808;37.368;127.108;2023-02-17T17:13:18;100871.22;;;27.61;nan
48029;BME280;33808;37.368;127.108;2023-02-17T17:15:48;100877.41;;;27.61;nan
48029;BME280;33808;37.368;127.108;2023-02-17T17:18:21;100871.38;;;27.59;nan
48029;BME280;33808;37.368;127.108;2023-02-17T17:20:52;100866.53;;;27.63;nan
48029;BME280;33808;37.368;127.108;2023-02-17T17:23:21;100861.94;;;27.55;nan
48029;BME280;33808;37.368;127.108;2023-02-17T17:25:53;100808.78;;;27.32;nan
48029;BME280;33808;37.368;127.108;2023-02-17T17:28:23;100855.25;;;27.59;nan
48029;BME280;33808;37.368;127.108;2023-02-17T17:33:42;100845.72;;;27.65;nan
48029;BME280;33808;37.368;127.108;2023-02-17T17:37:11;100849.97;;;27.67;nan
48029;BME280;33808;37.368;127.108;2023-02-17T17:40:39;100835.53;;;27.68;nan
48029;BME280;33808;37.368;127.108;2023-02-17T17:44:08;100794.81;;;27.47;nan
48029;BME280;33808;37.368;127.108;2023-02-17T17:47:37;100832.16;;;27.66;nan
48029;BME280;33808;37.368;127.108;2023-02-17T17:51:06;100831.63;;;27.63;nan
48029;BME280;33808;37.368;127.108;2023-02-17T17:54:34;100821.03;;;27.61;nan
48029;BME280;33808;37.368;127.108;2023-02-17T17:58:03;100805.44;;;27.56;nan
48029;BME280;33808;37.368;127.108;2023-02-17T18:01:32;100787.09;;;27.52;nan
48029;BME280;33808;37.368;127.108;2023-02-17T18:05:01;100769.78;;;27.46;nan
48029;BME280;33808;37.368;127.108;2023-02-17T18:08:30;100780.47;;;27.64;nan
48029;BME280;33808;37.368;127.108;2023-02-17T18:12:16;100762.38;;;27.66;nan
48029;BME280;33808;37.368;127.108;2023-02-17T18:15:44;100749.97;;;27.65;nan
48029;BME280;33808;37.368;127.108;2023-02-17T18:19:15;100777.09;;;27.62;nan
48029;BME280;33808;37.368;127.108;2023-02-17T18:22:42;100776.44;;;27.60;nan
48029;BME280;33808;37.368;127.108;2023-02-17T18:26:11;100795.53;;;27.57;nan
48029;BME280;33808;37.368;127.108;2023-02-17T18:29:40;100792.00;;;27.56;nan
48029;BME280;33808;37.368;127.108;2023-02-17T18:33:09;100790.00;;;27.58;nan
48029;BME280;33808;37.368;127.108;2023-02-17T18:36:37;100777.09;;;27.62;nan
48029;BME280;33808;37.368;127.108;2023-02-17T18:40:07;100759.50;;;27.60;nan
48029;BME280;33808;37.368;127.108;2023-02-17T18:43:35;100754.13;;;27.60;nan
48029;BME280;33808;37.368;127.108;2023-02-17T18:47:04;100753.41;;;27.57;nan
48029;BME280;33808;37.368;127.108;2023-02-17T18:50:14;100726.50;;;27.41;nan
48029;BME280;33808;37.368;127.108;2023-02-17T18:53:42;100751.44;;;27.60;nan
48029;BME280;33808;37.368;127.108;2023-02-17T18:57:11;100715.78;;;27.41;nan
48029;BME280;33808;37.368;127.108;2023-02-17T19:00:20;100736.69;;;27.64;nan
48029;BME280;33808;37.368;127.108;2023-02-17T19:03:10;100734.16;;;27.62;nan
48029;BME280;33808;37.368;127.108;2023-02-17T19:06:38;100752.31;;;27.68;nan
48029;BME280;33808;37.368;127.108;2023-02-17T19:10:07;100753.63;;;27.64;nan
48029;BME280;33808;37.368;127.108;2023-02-17T19:13:36;100740.22;;;27.64;nan
48029;BME280;33808;37.368;127.108;2023-02-17T19:16:45;100732.81;;;27.58;nan
48029;BME280;33808;37.368;127.108;2023-02-17T19:19:38;100746.75;;;27.62;nan
48029;BME280;33808;37.368;127.108;2023-02-17T19:23:03;100761.84;;;27.63;nan
48029;BME280;33808;37.368;127.108;2023-02-17T19:26:32;100735.66;;;27.56;nan
48029;BME280;33808;37.368;127.108;2023-02-17T19:30:01;100735.22;;;27.69;nan
48029;BME280;33808;37.368;127.108;2023-02-17T19:33:30;100753.31;;;27.67;nan
48029;BME280;33808;37.368;127.108;2023-02-17T19:36:58;100739.22;;;27.65;nan
48029;BME280;33808;37.368;127.108;2023-02-17T19:40:27;100751.44;;;27.60;nan
48029;BME280;33808;37.368;127.108;2023-02-17T19:43:56;100745.06;;;27.61;nan
48029;BME280;33808;37.368;127.108;2023-02-17T19:47:25;100746.06;;;27.60;nan
48029;BME280;33808;37.368;127.108;2023-02-17T19:51:00;100747.75;;;27.61;nan
48029;BME280;33808;37.368;127.108;2023-02-17T19:54:28;100739.00;;;27.58;nan
48029;BME280;33808;37.368;127.108;2023-02-17T19:57:57;100739.84;;;27.59;nan
48029;BME280;33808;37.368;127.108;2023-02-17T20:01:27;100715.06;;;27.39;nan
48029;BME280;33808;37.368;127.108;2023-02-17T20:04:55;100742.16;;;27.54;nan
48029;BME280;33808;37.368;127.108;2023-02-17T20:08:23;100740.34;;;27.54;nan
48029;BME280;33808;37.368;127.108;2023-02-17T20:11:52;100736.16;;;27.60;nan
48029;BME280;33808;37.368;127.108;2023-02-17T20:15:02;100741.53;;;27.60;nan
48029;BME280;33808;37.368;127.108;2023-02-17T20:17:31;100742.38;;;27.61;nan
48029;BME280;33808;37.368;127.108;2023-02-17T20:20:21;100735.34;;;27.60;nan
48029;BME280;33808;37.368;127.108;2023-02-17T20:23:50;100720.75;;;27.62;nan
48029;BME280;33808;37.368;127.108;2023-02-17T20:27:06;100715.13;;;27.47;nan
48029;BME280;33808;37.368;127.108;2023-02-17T20:29:57;100742.16;;;27.54;nan
48029;BME280;33808;37.368;127.108;2023-02-17T20:33:24;100730.28;;;27.56;nan
48029;BME280;33808;37.368;127.108;2023-02-17T20:36:53;100723.38;;;27.54;nan
48029;BME280;33808;37.368;127.108;2023-02-17T20:40:22;100731.59;;;27.52;nan
48029;BME280;33808;37.368;127.108;2023-02-17T20:43:51;100707.75;;;27.49;nan
48029;BME280;33808;37.368;127.108;2023-02-17T20:47:20;100720.50;;;27.47;nan
48029;BME280;33808;37.368;127.108;2023-02-17T20:50:45;100717.66;;;27.49;nan
48029;BME280;33808;37.368;127.108;2023-02-17T20:53:35;100714.13;;;27.48;nan
48029;BME280;33808;37.368;127.108;2023-02-17T20:57:08;100705.91;;;27.50;nan
48029;BME280;33808;37.368;127.108;2023-02-17T21:00:32;100702.09;;;27.52;nan
48029;BME280;33808;37.368;127.108;2023-02-17T21:04:01;100697.56;;;27.53;nan
48029;BME280;33808;37.368;127.108;2023-02-17T21:07:30;100687.13;;;27.50;nan
48029;BME280;33808;37.368;127.108;2023-02-17T21:10:53;100688.44;;;27.46;nan
48029;BME280;33808;37.368;127.108;2023-02-17T21:13:42;100689.66;;;27.51;nan
48029;BME280;33808;37.368;127.108;2023-02-17T21:17:11;100665.41;;;27.35;nan
48029;BME280;33808;37.368;127.108;2023-02-17T21:20:40;100695.53;;;27.55;nan
48029;BME280;33808;37.368;127.108;2023-02-17T21:24:09;100682.78;;;27.49;nan
48029;BME280;33808;37.368;127.108;2023-02-17T21:27:37;100690.69;;;27.58;nan
48029;BME280;33808;37.368;127.108;2023-02-17T21:31:06;100682.28;;;27.53;nan
48029;BME280;33808;37.368;127.108;2023-02-17T21:34:38;100691.34;;;27.52;nan
48029;BME280;33808;37.368;127.108;2023-02-17T21:37:47;100690.31;;;27.53;nan
48029;BME280;33808;37.368;127.108;2023-02-17T21:40:36;100690.69;;;27.58;nan
48029;BME280;33808;37.368;127.108;2023-02-17T21:44:05;100679.75;;;27.52;nan
48029;BME280;33808;37.368;127.108;2023-02-17T21:47:32;100690.47;;;27.52;nan
48029;BME280;33808;37.368;127.108;2023-02-17T21:51:08;100683.75;;;27.48;nan
48029;BME280;33808;37.368;127.108;2023-02-17T21:54:37;100686.28;;;27.49;nan
48029;BME280;33808;37.368;127.108;2023-02-17T21:58:06;100679.22;;;27.48;nan
48029;BME280;33808;37.368;127.108;2023-02-17T22:01:35;100682.78;;;27.49;nan
48029;BME280;33808;37.368;127.108;2023-02-17T22:05:03;100650.41;;;27.24;nan
48029;BME280;33808;37.368;127.108;2023-02-17T22:08:32;100683.91;;;27.46;nan
48029;BME280;33808;37.368;127.108;2023-02-17T22:12:01;100693.13;;;27.44;nan
48029;BME280;33808;37.368;127.108;2023-02-17T22:15:29;100662.56;;;27.28;nan
48029;BME280;33808;37.368;127.108;2023-02-17T22:37:10;100701.50;;;27.41;nan
48029;BME280;33808;37.368;127.108;2023-02-17T22:39:41;100716.91;;;27.38;nan
48029;BME280;33808;37.368;127.108;2023-02-17T22:42:10;100704.72;;;27.44;nan
48029;BME280;33808;37.368;127.108;2023-02-17T22:44:41;100699.69;;;27.41;nan
48029;BME280;33808;37.368;127.108;2023-02-17T22:47:11;100700.00;;;27.38;nan
48029;BME280;33808;37.368;127.108;2023-02-17T22:50:02;100695.97;;;27.42;nan
48029;BME280;33808;37.368;127.108;2023-02-17T22:53:30;100699.34;;;27.44;nan
48029;BME280;33808;37.368;127.108;2023-02-17T22:56:59;100679.78;;;27.26;nan
48029;BME280;33808;37.368;127.108;2023-02-17T23:00:28;100690.91;;;27.39;nan
48029;BME280;33808;37.368;127.108;2023-02-17T23:03:57;100712.91;;;27.43;nan
48029;BME280;33808;37.368;127.108;2023-02-17T23:07:25;100702.53;;;27.40;nan
48029;BME280;33808;37.368;127.108;2023-02-17T23:10:54;100689.97;;;27.48;nan
48029;BME280;33808;37.368;127.108;2023-02-17T23:14:24;100692.50;;;27.50;nan
48029;BME280;33808;37.368;127.108;2023-02-17T23:17:52;100704.41;;;27.47;nan
48029;BME280;33808;37.368;127.108;2023-02-17T23:21:20;100699.34;;;27.44;nan
48029;BME280;33808;37.368;127.108;2023-02-17T23:24:30;100686.72;;;27.36;nan
48029;BME280;33808;37.368;127.108;2023-02-17T23:27:19;100683.72;;;27.40;nan
48029;BME280;33808;37.368;127.108;2023-02-17T23:30:48;100682.03;;;27.38;nan
48029;BME280;33808;37.368;127.108;2023-02-17T23:34:17;100670.59;;;27.28;nan
48029;BME280;33808;37.368;127.108;2023-02-17T23:37:47;100695.16;;;27.42;nan
48029;BME280;33808;37.368;127.108;2023-02-17T23:41:14;100706.25;;;27.47;nan
48029;BME280;33808;37.368;127.108;2023-02-17T23:44:43;100715.13;;;27.47;nan
48029;BME280;33808;37.368;127.108;2023-02-17T23:48:12;100701.34;;;27.42;nan
48029;BME280;33808;37.368;127.108;2023-02-17T23:51:41;100708.06;;;27.46;nan
48029;BME280;33808;37.368;127.108;2023-02-17T23:55:10;100712.91;;;27.43;nan
48029;BME280;33808;37.368;127.108;2023-02-17T23:58:38;100712.22;;;27.41;nan
